Time;durP1;ratioP1;P1;durP2;ratioP2;P2;SDS_P1;SDS_P2;PMS_P1;PMS_P2;Temp;Humidity;BMP_temperature;BMP_pressure;BME280_temperature;BME280_humidity;BME280_pressure;Samples;Min_cycle;Max_cycle;Signal;HPM_P1;HPM_P2
2023/05/04 00:01:10;;;;;;;12.02;7.40;;;;;;;;;;5017595;28;20091;-79
2023/05/04 00:03:36;;;;;;;16.77;7.85;;;;;;;;;;5028328;28;20065;-80
2023/05/04 00:06:03;;;;;;;16.42;7.63;;;;;;;;;;5032057;28;20084;-81
2023/05/04 00:08:30;;;;;;;15.15;7.63;;;;;;;;;;5023288;28;20117;-78
2023/05/04 00:10:56;;;;;;;13.07;7.00;;;;;;;;;;5021435;28;20049;-81
2023/05/04 00:13:23;;;;;;;13.65;7.32;;;;;;;;;;5027631;28;20437;-79
2023/05/04 00:15:49;;;;;;;12.43;7.35;;;;;;;;;;5030661;28;20171;-79
2023/05/04 00:18:15;;;;;;;16.27;8.40;;;;;;;;;;5028590;28;20121;-80
2023/05/04 00:20:42;;;;;;;12.18;7.28;;;;;;;;;;5028123;28;20050;-79
2023/05/04 00:23:08;;;;;;;12.48;7.88;;;;;;;;;;5029684;28;20137;-76
2023/05/04 00:25:35;;;;;;;14.88;7.43;;;;;;;;;;5028063;28;20054;-77
2023/05/04 00:28:01;;;;;;;12.63;7.20;;;;;;;;;;5021090;28;20058;-80
2023/05/04 00:30:27;;;;;;;14.10;7.65;;;;;;;;;;5019725;28;20109;-80
2023/05/04 00:32:54;;;;;;;11.82;7.63;;;;;;;;;;5011524;28;20069;-79
2023/05/04 00:35:20;;;;;;;13.10;7.80;;;;;;;;;;5021211;28;20057;-79
2023/05/04 00:37:46;;;;;;;14.15;7.15;;;;;;;;;;5029788;28;20065;-80
2023/05/04 00:40:13;;;;;;;13.57;7.43;;;;;;;;;;5027862;28;20581;-80
2023/05/04 00:42:39;;;;;;;11.85;7.22;;;;;;;;;;5031140;28;20058;-79
2023/05/04 00:45:06;;;;;;;12.50;7.45;;;;;;;;;;5026571;28;20057;-78
2023/05/04 00:47:32;;;;;;;15.88;7.57;;;;;;;;;;5020431;28;20054;-79
2023/05/04 00:49:58;;;;;;;17.65;7.53;;;;;;;;;;5026717;28;20054;-80
2023/05/04 00:52:26;;;;;;;15.82;7.47;;;;;;;;;;5009606;28;20137;-78
2023/05/04 00:54:53;;;;;;;14.40;7.65;;;;;;;;;;5019734;28;20053;-79
2023/05/04 00:57:19;;;;;;;11.52;7.10;;;;;;;;;;5028112;28;20085;-77
2023/05/04 00:59:46;;;;;;;13.65;7.70;;;;;;;;;;5024068;28;20867;-80
2023/05/04 01:02:12;;;;;;;14.15;7.25;;;;;;;;;;5024910;28;20062;-80
2023/05/04 01:04:39;;;;;;;11.95;7.00;;;;;;;;;;5025091;28;20128;-80
2023/05/04 01:07:12;;;;;;;15.55;7.50;;;;;;;;;;5025220;28;20058;-80
2023/05/04 01:09:43;;;;;;;13.07;7.43;;;;;;;;;;5025994;28;20110;-78
2023/05/04 01:12:17;;;;;;;12.75;6.97;;;;;;;;;;5029707;28;20062;-78
2023/05/04 01:14:45;;;;;;;17.55;7.13;;;;;;;;;;5027027;28;20112;-80
2023/05/04 01:17:11;;;;;;;13.25;6.57;;;;;;;;;;5018816;28;20269;-79
2023/05/04 01:19:38;;;;;;;13.48;6.85;;;;;;;;;;5027306;28;20718;-80
2023/05/04 01:22:04;;;;;;;14.63;7.32;;;;;;;;;;5030330;28;20065;-80
2023/05/04 01:24:31;;;;;;;12.98;6.75;;;;;;;;;;5029741;28;20101;-79
2023/05/04 01:27:07;;;;;;;11.65;6.82;;;;;;;;;;5029255;28;20057;-78
2023/05/04 01:29:37;;;;;;;14.50;6.72;;;;;;;;;;5026142;28;20153;-78
2023/05/04 01:32:05;;;;;;;11.60;6.50;;;;;;;;;;5030345;28;20042;-77
2023/05/04 01:34:31;;;;;;;15.23;6.97;;;;;;;;;;5030731;28;20041;-78
2023/05/04 01:36:58;;;;;;;10.68;6.32;;;;;;;;;;5030267;28;20054;-79
2023/05/04 01:39:24;;;;;;;15.73;7.18;;;;;;;;;;5025288;28;20136;-78
2023/05/04 01:41:50;;;;;;;12.25;7.07;;;;;;;;;;5025528;28;20085;-78
2023/05/04 01:44:17;;;;;;;15.52;6.82;;;;;;;;;;5025569;28;20066;-79
2023/05/04 01:46:43;;;;;;;11.30;7.03;;;;;;;;;;5022221;28;20149;-80
2023/05/04 01:49:10;;;;;;;14.90;7.30;;;;;;;;;;5028334;28;20081;-80
2023/05/04 01:51:36;;;;;;;11.95;6.50;;;;;;;;;;5011164;28;20168;-78
2023/05/04 01:54:02;;;;;;;12.45;6.15;;;;;;;;;;5025503;28;20061;-79
2023/05/04 01:56:29;;;;;;;12.27;6.78;;;;;;;;;;5028244;28;20829;-80
2023/05/04 01:58:55;;;;;;;15.18;6.55;;;;;;;;;;5025793;28;20058;-77
2023/05/04 02:01:21;;;;;;;13.55;6.63;;;;;;;;;;5024759;28;20042;-78
2023/05/04 02:03:48;;;;;;;11.65;6.57;;;;;;;;;;5024837;28;20058;-80
2023/05/04 02:06:14;;;;;;;11.93;6.57;;;;;;;;;;5030961;28;20050;-79
2023/05/04 02:08:41;;;;;;;12.02;6.45;;;;;;;;;;5025971;28;20423;-77
2023/05/04 02:11:07;;;;;;;12.98;6.65;;;;;;;;;;5019114;28;20471;-80
2023/05/04 02:13:33;;;;;;;11.50;6.60;;;;;;;;;;5023810;28;20588;-79
2023/05/04 02:16:00;;;;;;;11.88;6.22;;;;;;;;;;5029437;28;20524;-77
2023/05/04 02:18:26;;;;;;;12.15;6.40;;;;;;;;;;5025336;28;20049;-77
2023/05/04 02:20:52;;;;;;;13.02;6.75;;;;;;;;;;5024053;28;20046;-79
2023/05/04 02:23:19;;;;;;;14.68;6.32;;;;;;;;;;5028486;28;20065;-79
2023/05/04 02:25:45;;;;;;;12.25;6.32;;;;;;;;;;5028480;28;20046;-80
2023/05/04 02:28:11;;;;;;;15.05;6.72;;;;;;;;;;5028017;28;20046;-77
2023/05/04 02:30:38;;;;;;;11.52;6.30;;;;;;;;;;5015283;28;20058;-80
2023/05/04 02:33:04;;;;;;;10.55;6.07;;;;;;;;;;5016830;28;20081;-80
2023/05/04 02:35:31;;;;;;;13.20;6.50;;;;;;;;;;5027269;28;20574;-79
2023/05/04 02:37:57;;;;;;;9.63;6.13;;;;;;;;;;5029096;28;20058;-77
2023/05/04 02:40:23;;;;;;;11.20;6.22;;;;;;;;;;5012071;28;20097;-78
2023/05/04 02:42:50;;;;;;;13.93;6.20;;;;;;;;;;5028320;28;20038;-80
2023/05/04 02:45:16;;;;;;;11.90;6.18;;;;;;;;;;5028403;28;20050;-79
2023/05/04 02:47:42;;;;;;;10.52;6.40;;;;;;;;;;5026548;28;20505;-77
2023/05/04 02:50:09;;;;;;;12.85;6.05;;;;;;;;;;5014048;28;20069;-78
2023/05/04 02:52:35;;;;;;;11.70;6.07;;;;;;;;;;5016962;28;20512;-81
2023/05/04 02:55:02;;;;;;;11.65;6.13;;;;;;;;;;5024911;28;20591;-78
2023/05/04 02:57:29;;;;;;;12.77;6.50;;;;;;;;;;5020513;28;20639;-80
2023/05/04 02:59:55;;;;;;;11.75;6.38;;;;;;;;;;5023136;28;20089;-77
2023/05/04 03:02:22;;;;;;;13.95;6.60;;;;;;;;;;5023761;28;20064;-78
2023/05/04 03:04:48;;;;;;;12.18;6.38;;;;;;;;;;5026880;28;20054;-78
2023/05/04 03:07:14;;;;;;;11.43;6.22;;;;;;;;;;5016973;28;20057;-76
2023/05/04 03:09:41;;;;;;;12.63;6.60;;;;;;;;;;5026875;28;20058;-78
2023/05/04 03:12:07;;;;;;;11.93;6.20;;;;;;;;;;5021253;28;20057;-80
2023/05/04 03:14:33;;;;;;;10.45;6.07;;;;;;;;;;5028537;28;20129;-76
2023/05/04 03:17:00;;;;;;;12.85;6.20;;;;;;;;;;5015892;28;20046;-78
2023/05/04 03:19:26;;;;;;;12.00;6.15;;;;;;;;;;5022795;28;20062;-80
2023/05/04 03:21:52;;;;;;;11.50;6.03;;;;;;;;;;5017614;28;20542;-78
2023/05/04 03:24:19;;;;;;;10.90;5.95;;;;;;;;;;5027849;28;20137;-78
2023/05/04 03:26:46;;;;;;;10.50;5.65;;;;;;;;;;5027638;28;20112;-80
2023/05/04 03:29:12;;;;;;;11.57;6.07;;;;;;;;;;5024225;28;20053;-78
2023/05/04 03:31:38;;;;;;;11.05;6.40;;;;;;;;;;5025576;28;20081;-79
2023/05/04 03:34:05;;;;;;;10.80;5.97;;;;;;;;;;5026495;28;20066;-79
2023/05/04 03:36:31;;;;;;;11.45;6.03;;;;;;;;;;5022758;28;20931;-80
2023/05/04 03:38:58;;;;;;;10.65;6.03;;;;;;;;;;5022369;28;20183;-80
2023/05/04 03:41:24;;;;;;;14.40;6.47;;;;;;;;;;5025374;28;20058;-76
2023/05/04 03:43:50;;;;;;;13.02;6.63;;;;;;;;;;5026831;28;20200;-79
2023/05/04 03:46:17;;;;;;;10.50;5.45;;;;;;;;;;5026905;28;20575;-79
2023/05/04 03:48:43;;;;;;;14.68;6.32;;;;;;;;;;5025303;28;20058;-77
2023/05/04 03:51:10;;;;;;;11.07;6.60;;;;;;;;;;5026356;28;20193;-80
2023/05/04 03:53:36;;;;;;;13.02;6.20;;;;;;;;;;5026480;28;20113;-80
2023/05/04 03:56:03;;;;;;;15.95;6.93;;;;;;;;;;5027240;28;20058;-80
2023/05/04 03:58:29;;;;;;;12.15;6.13;;;;;;;;;;5024880;28;20544;-78
2023/05/04 04:00:56;;;;;;;13.70;6.28;;;;;;;;;;5024032;28;20109;-80
2023/05/04 04:03:22;;;;;;;15.88;6.32;;;;;;;;;;5025140;28;20053;-81
2023/05/04 04:05:49;;;;;;;13.02;6.30;;;;;;;;;;5026583;28;20077;-77
2023/05/04 04:08:15;;;;;;;14.98;6.75;;;;;;;;;;5023470;28;20072;-78
2023/05/04 04:10:42;;;;;;;11.68;6.18;;;;;;;;;;5022880;28;20498;-77
2023/05/04 04:13:08;;;;;;;11.55;6.35;;;;;;;;;;5025385;28;20061;-78
2023/05/04 04:15:35;;;;;;;14.73;6.68;;;;;;;;;;5029627;28;20060;-79
2023/05/04 04:18:01;;;;;;;13.80;6.45;;;;;;;;;;5019821;28;20050;-79
2023/05/04 04:20:28;;;;;;;12.82;6.40;;;;;;;;;;5024738;28;20081;-80
2023/05/04 04:22:54;;;;;;;13.10;6.90;;;;;;;;;;5023600;28;20870;-79
2023/05/04 04:25:21;;;;;;;11.75;5.90;;;;;;;;;;5024676;28;20586;-79
2023/05/04 04:27:47;;;;;;;14.27;6.22;;;;;;;;;;5017848;28;20058;-80
2023/05/04 04:30:14;;;;;;;16.73;7.10;;;;;;;;;;5013835;28;20050;-80
2023/05/04 04:32:41;;;;;;;13.77;6.72;;;;;;;;;;5016963;28;20101;-81
2023/05/04 04:35:07;;;;;;;13.52;6.93;;;;;;;;;;5022984;28;20064;-79
2023/05/04 04:37:34;;;;;;;12.40;6.13;;;;;;;;;;5020956;28;20045;-79
2023/05/04 04:40:00;;;;;;;13.20;6.70;;;;;;;;;;5024900;28;20065;-79
2023/05/04 04:42:27;;;;;;;12.73;6.35;;;;;;;;;;5024311;28;20085;-80
2023/05/04 04:44:53;;;;;;;14.32;6.97;;;;;;;;;;5021180;28;20047;-80
2023/05/04 04:47:20;;;;;;;11.85;6.82;;;;;;;;;;5020849;28;20058;-80
2023/05/04 04:49:46;;;;;;;12.10;6.43;;;;;;;;;;5017668;28;20049;-79
2023/05/04 04:52:13;;;;;;;14.48;6.85;;;;;;;;;;5016236;28;20271;-81
2023/05/04 04:54:41;;;;;;;11.25;6.30;;;;;;;;;;5026198;28;20185;-80
2023/05/04 04:57:07;;;;;;;15.65;6.80;;;;;;;;;;5027036;28;20062;-79
2023/05/04 04:59:33;;;;;;;14.52;6.80;;;;;;;;;;5027147;28;20164;-80
2023/05/04 05:02:00;;;;;;;14.52;7.20;;;;;;;;;;5024665;28;20149;-80
2023/05/04 05:04:27;;;;;;;14.93;7.15;;;;;;;;;;5026319;28;20104;-79
2023/05/04 05:06:53;;;;;;;12.98;7.05;;;;;;;;;;5025911;28;20056;-80
2023/05/04 05:09:19;;;;;;;14.35;6.93;;;;;;;;;;5028146;28;20812;-80
2023/05/04 05:11:46;;;;;;;12.98;7.05;;;;;;;;;;5025816;28;20054;-80
2023/05/04 05:14:13;;;;;;;12.75;7.07;;;;;;;;;;5023766;28;20125;-79
2023/05/04 05:16:39;;;;;;;14.93;6.95;;;;;;;;;;5022626;28;22633;-79
2023/05/04 05:19:06;;;;;;;13.02;6.93;;;;;;;;;;5016787;28;20182;-79
2023/05/04 05:21:32;;;;;;;16.10;7.20;;;;;;;;;;5443648;22;20137;-79
2023/05/04 05:24:00;;;;;;;12.93;7.13;;;;;;;;;;4989841;28;20105;-80
2023/05/04 05:26:27;;;;;;;13.20;6.45;;;;;;;;;;4994814;28;20118;-79
2023/05/04 05:28:53;;;;;;;13.35;6.80;;;;;;;;;;4995099;28;20062;-80
2023/05/04 05:31:19;;;;;;;13.82;6.80;;;;;;;;;;4990412;28;20059;-78
2023/05/04 05:33:46;;;;;;;17.48;7.07;;;;;;;;;;4993690;28;20086;-78
2023/05/04 05:36:13;;;;;;;14.00;6.45;;;;;;;;;;4984486;28;20050;-80
2023/05/04 05:38:39;;;;;;;15.23;7.10;;;;;;;;;;4983058;28;20043;-79
2023/05/04 05:41:06;;;;;;;14.57;7.25;;;;;;;;;;4993171;28;20139;-79
2023/05/04 05:43:32;;;;;;;14.93;7.22;;;;;;;;;;4985247;28;20904;-79
2023/05/04 05:45:58;;;;;;;16.02;7.47;;;;;;;;;;4992777;28;20054;-77
2023/05/04 05:48:25;;;;;;;15.73;7.38;;;;;;;;;;4991608;28;20039;-79
2023/05/04 05:50:51;;;;;;;13.93;6.90;;;;;;;;;;4999610;28;20106;-79
2023/05/04 05:53:17;;;;;;;13.77;6.88;;;;;;;;;;4979044;28;20065;-79
2023/05/04 05:55:45;;;;;;;15.23;7.57;;;;;;;;;;4993378;28;20055;-79
2023/05/04 05:58:11;;;;;;;14.23;7.30;;;;;;;;;;4989046;28;20063;-79
2023/05/04 06:00:37;;;;;;;14.15;7.50;;;;;;;;;;4992263;28;20482;-79
2023/05/04 06:03:04;;;;;;;17.45;7.55;;;;;;;;;;4988184;28;20378;-79
2023/05/04 06:05:32;;;;;;;13.73;7.65;;;;;;;;;;4992331;28;20058;-80
2023/05/04 06:07:58;;;;;;;13.85;6.90;;;;;;;;;;4976084;28;20050;-78
2023/05/04 06:10:25;;;;;;;17.52;7.47;;;;;;;;;;4993306;28;20058;-80
2023/05/04 06:12:52;;;;;;;13.27;6.97;;;;;;;;;;4991223;28;20062;-78
2023/05/04 06:15:18;;;;;;;17.80;7.82;;;;;;;;;;4991686;28;20094;-77
2023/05/04 06:17:44;;;;;;;15.45;7.55;;;;;;;;;;4990054;28;20676;-80
2023/05/04 06:20:11;;;;;;;18.80;7.13;;;;;;;;;;4992100;28;20178;-77
2023/05/04 06:22:38;;;;;;;12.35;6.97;;;;;;;;;;4984934;28;20599;-79
2023/05/04 06:25:04;;;;;;;14.50;6.53;;;;;;;;;;4992481;28;20484;-78
2023/05/04 06:27:33;;;;;;;13.30;7.43;;;;;;;;;;4977058;28;20054;-78
2023/05/04 06:29:59;;;;;;;15.60;7.05;;;;;;;;;;4989905;28;20062;-79
2023/05/04 06:32:26;;;;;;;14.98;6.47;;;;;;;;;;4997885;28;20082;-78
2023/05/04 06:34:54;;;;;;;11.02;6.95;;;;;;;;;;4998108;28;20058;-78
2023/05/04 06:37:20;;;;;;;11.07;6.15;;;;;;;;;;4985295;28;20074;-78
2023/05/04 06:39:47;;;;;;;13.35;7.10;;;;;;;;;;4993926;28;20565;-78
2023/05/04 06:42:13;;;;;;;14.70;6.82;;;;;;;;;;4992725;28;20051;-78
2023/05/04 06:44:40;;;;;;;12.63;6.35;;;;;;;;;;4978263;28;20122;-76
2023/05/04 06:47:06;;;;;;;12.65;6.53;;;;;;;;;;4993073;28;20057;-79
2023/05/04 06:49:33;;;;;;;14.35;7.03;;;;;;;;;;4976361;28;20113;-79
2023/05/04 06:52:00;;;;;;;13.85;6.55;;;;;;;;;;4997363;28;20055;-79
2023/05/04 06:54:26;;;;;;;12.60;6.38;;;;;;;;;;4992814;28;20670;-77
2023/05/04 06:56:53;;;;;;;13.07;6.68;;;;;;;;;;4979197;28;20526;-79
2023/05/04 06:59:19;;;;;;;12.57;6.00;;;;;;;;;;4996375;28;20212;-78
2023/05/04 07:01:46;;;;;;;14.80;6.63;;;;;;;;;;4988494;28;20066;-79
2023/05/04 07:04:15;;;;;;;10.73;6.38;;;;;;;;;;4976825;28;20421;-78
2023/05/04 07:06:42;;;;;;;14.18;6.35;;;;;;;;;;4986983;28;20637;-77
2023/05/04 07:09:08;;;;;;;11.82;7.05;;;;;;;;;;4992209;28;20616;-79
2023/05/04 07:11:35;;;;;;;16.23;6.55;;;;;;;;;;4988829;28;20058;-78
2023/05/04 07:14:01;;;;;;;12.38;7.25;;;;;;;;;;4996996;28;20055;-78
2023/05/04 07:16:27;;;;;;;15.20;6.40;;;;;;;;;;4989883;28;20181;-78
2023/05/04 07:18:54;;;;;;;14.15;6.70;;;;;;;;;;4990426;28;20054;-78
2023/05/04 07:21:20;;;;;;;16.30;6.70;;;;;;;;;;4990689;28;20062;-77
2023/05/04 07:23:54;;;;;;;16.10;6.90;;;;;;;;;;4980222;28;20930;-77
2023/05/04 07:26:21;;;;;;;9.18;6.00;;;;;;;;;;4989705;28;20143;-78
2023/05/04 07:28:47;;;;;;;19.02;6.88;;;;;;;;;;4992584;28;20371;-79
2023/05/04 07:31:14;;;;;;;13.27;6.40;;;;;;;;;;4998378;28;20844;-78
2023/05/04 07:33:41;;;;;;;12.13;6.22;;;;;;;;;;4973655;28;20070;-78
2023/05/04 07:36:07;;;;;;;11.10;6.38;;;;;;;;;;4987981;28;20047;-79
2023/05/04 07:38:34;;;;;;;12.50;6.53;;;;;;;;;;4979004;28;20058;-78
2023/05/04 07:41:00;;;;;;;12.55;6.10;;;;;;;;;;4986054;28;20059;-79
2023/05/04 07:43:29;;;;;;;10.20;6.40;;;;;;;;;;4989344;28;20063;-77
2023/05/04 07:45:55;;;;;;;16.20;6.43;;;;;;;;;;4992318;28;20081;-78
2023/05/04 07:48:22;;;;;;;11.80;5.93;;;;;;;;;;4972574;28;20820;-79
2023/05/04 07:50:51;;;;;;;9.35;5.68;;;;;;;;;;4988139;28;20140;-77
2023/05/04 07:53:19;;;;;;;10.43;5.78;;;;;;;;;;4990001;28;20660;-77
2023/05/04 07:55:46;;;;;;;12.60;5.93;;;;;;;;;;4991989;28;20590;-78
2023/05/04 07:58:14;;;;;;;9.45;5.80;;;;;;;;;;4992989;28;20066;-76
2023/05/04 08:00:40;;;;;;;10.75;5.82;;;;;;;;;;4993743;28;20089;-78
2023/05/04 08:03:07;;;;;;;10.43;5.90;;;;;;;;;;4991495;28;20046;-79
2023/05/04 08:05:33;;;;;;;14.07;6.53;;;;;;;;;;5003094;28;20061;-78
2023/05/04 08:07:59;;;;;;;9.68;5.75;;;;;;;;;;4990984;28;20576;-79
2023/05/04 08:10:26;;;;;;;9.88;6.28;;;;;;;;;;4984747;28;20054;-78
2023/05/04 08:12:52;;;;;;;10.38;6.05;;;;;;;;;;4987205;28;20050;-77
2023/05/04 08:15:19;;;;;;;9.27;5.97;;;;;;;;;;4989490;28;20465;-78
2023/05/04 08:17:45;;;;;;;12.52;6.00;;;;;;;;;;4994379;28;20635;-80
2023/05/04 08:20:12;;;;;;;11.52;5.85;;;;;;;;;;4995873;28;20057;-78
2023/05/04 08:22:38;;;;;;;9.23;5.25;;;;;;;;;;5001513;28;20060;-78
2023/05/04 08:25:05;;;;;;;10.55;5.43;;;;;;;;;;4990956;28;20059;-78
2023/05/04 08:27:32;;;;;;;9.07;4.97;;;;;;;;;;4989684;28;20097;-78
2023/05/04 08:29:58;;;;;;;10.82;4.97;;;;;;;;;;4997978;28;20054;-77
2023/05/04 08:32:25;;;;;;;8.80;4.53;;;;;;;;;;4990852;28;20058;-79
2023/05/04 08:34:52;;;;;;;8.48;4.63;;;;;;;;;;4977522;28;20062;-78
2023/05/04 08:37:19;;;;;;;8.88;4.75;;;;;;;;;;4992247;28;20649;-78
2023/05/04 08:39:45;;;;;;;10.23;5.18;;;;;;;;;;4994228;28;20054;-78
2023/05/04 08:42:11;;;;;;;10.63;5.05;;;;;;;;;;4996162;28;20070;-79
2023/05/04 08:44:38;;;;;;;10.35;5.05;;;;;;;;;;4997321;28;20538;-78
2023/05/04 08:47:04;;;;;;;7.88;4.30;;;;;;;;;;4995379;28;20138;-77
2023/05/04 08:49:31;;;;;;;10.65;4.85;;;;;;;;;;4974396;28;20054;-77
2023/05/04 08:51:57;;;;;;;8.93;4.28;;;;;;;;;;4980086;28;20437;-77
2023/05/04 08:54:25;;;;;;;11.13;4.65;;;;;;;;;;4993880;28;20540;-77
2023/05/04 08:56:51;;;;;;;8.60;4.45;;;;;;;;;;5000634;28;20055;-78
2023/05/04 08:59:18;;;;;;;7.88;4.45;;;;;;;;;;4992350;28;20115;-77
2023/05/04 09:01:47;;;;;;;8.10;4.40;;;;;;;;;;4991822;28;20058;-78
2023/05/04 09:04:13;;;;;;;9.35;4.90;;;;;;;;;;4997824;28;20054;-77
2023/05/04 09:06:40;;;;;;;8.35;4.40;;;;;;;;;;4987905;28;20059;-78
2023/05/04 09:09:07;;;;;;;7.57;3.75;;;;;;;;;;4991792;28;20061;-78
2023/05/04 09:11:33;;;;;;;7.93;4.28;;;;;;;;;;4990091;28;20054;-77
2023/05/04 09:14:00;;;;;;;10.13;3.83;;;;;;;;;;4997843;28;20077;-78
2023/05/04 09:16:36;;;;;;;7.35;4.38;;;;;;;;;;5000246;28;20684;-79
2023/05/04 09:19:04;;;;;;;7.53;4.00;;;;;;;;;;4978939;28;20456;-78
2023/05/04 09:21:30;;;;;;;12.02;3.80;;;;;;;;;;4973696;28;20058;-76
2023/05/04 09:23:58;;;;;;;9.48;3.58;;;;;;;;;;4984133;28;20058;-77
2023/05/04 09:26:28;;;;;;;7.60;3.42;;;;;;;;;;4992099;28;20099;-77
2023/05/04 09:28:55;;;;;;;6.95;3.63;;;;;;;;;;4992431;28;20059;-76
2023/05/04 09:31:22;;;;;;;7.03;3.38;;;;;;;;;;4995784;28;20066;-77
2023/05/04 09:33:48;;;;;;;8.68;3.78;;;;;;;;;;4993309;28;20067;-78
2023/05/04 09:36:19;;;;;;;8.38;3.28;;;;;;;;;;4973074;28;20142;-78
2023/05/04 09:38:46;;;;;;;8.30;3.15;;;;;;;;;;4994986;28;20054;-78
2023/05/04 09:43:48;;;;;;;9.02;3.22;;;;;;;;;;5779471;22;20049;-77
2023/05/04 09:46:17;;;;;;;7.97;3.08;;;;;;;;;;5029072;28;20541;-76
2023/05/04 09:48:55;;;;;;;7.78;3.15;;;;;;;;;;5021676;28;20077;-77
2023/05/04 09:51:23;;;;;;;7.57;3.38;;;;;;;;;;5043555;28;20081;-77
2023/05/04 09:53:50;;;;;;;8.40;3.45;;;;;;;;;;5031633;28;20787;-77
2023/05/04 09:56:24;;;;;;;6.15;3.03;;;;;;;;;;5048544;28;20046;-77
2023/05/04 09:58:51;;;;;;;9.90;2.92;;;;;;;;;;5030035;28;20065;-77
2023/05/04 10:01:18;;;;;;;7.75;3.28;;;;;;;;;;5029264;28;20598;-77
2023/05/04 10:03:45;;;;;;;6.97;3.20;;;;;;;;;;5046731;28;20057;-75
2023/05/04 10:06:11;;;;;;;7.70;3.55;;;;;;;;;;5040367;28;20085;-75
2023/05/04 10:08:39;;;;;;;8.85;3.28;;;;;;;;;;5043588;28;20164;-76
2023/05/04 10:11:06;;;;;;;8.68;3.38;;;;;;;;;;5025381;28;20049;-76
2023/05/04 10:13:32;;;;;;;7.03;3.15;;;;;;;;;;5035996;28;20062;-74
2023/05/04 10:16:14;;;;;;;6.75;3.20;;;;;;;;;;5040705;28;20060;-76
2023/05/04 10:21:26;;;;;;;7.55;3.42;;;;;;;;;;5101607;22;20146;-73
2023/05/04 10:23:56;;;;;;;7.85;3.50;;;;;;;;;;5034534;28;20624;-75
2023/05/04 10:26:28;;;;;;;8.80;3.57;;;;;;;;;;5034194;28;20053;-75
2023/05/04 10:29:12;;;;;;;9.85;3.50;;;;;;;;;;5022564;28;20570;-73
2023/05/04 10:31:39;;;;;;;8.50;3.30;;;;;;;;;;5028921;28;20077;-73
2023/05/04 10:34:06;;;;;;;8.55;3.33;;;;;;;;;;5042511;28;20050;-73
2023/05/04 10:36:40;;;;;;;8.80;4.15;;;;;;;;;;5041436;28;20169;-73
2023/05/04 10:39:26;;;;;;;8.30;4.15;;;;;;;;;;5019386;28;20065;-73
2023/05/04 10:42:02;;;;;;;9.38;4.03;;;;;;;;;;5040657;28;20053;-74
2023/05/04 10:44:33;;;;;;;6.63;3.72;;;;;;;;;;5043309;28;20519;-74
2023/05/04 10:47:00;;;;;;;11.65;4.70;;;;;;;;;;5043140;28;20062;-73
2023/05/04 10:49:27;;;;;;;10.00;4.70;;;;;;;;;;5042124;28;20132;-73
2023/05/04 10:52:09;;;;;;;9.98;4.40;;;;;;;;;;5020978;28;20064;-73
2023/05/04 10:54:36;;;;;;;11.75;4.68;;;;;;;;;;5039212;28;20060;-73
2023/05/04 10:57:07;;;;;;;7.85;4.20;;;;;;;;;;5032445;28;20053;-73
2023/05/04 10:59:34;;;;;;;8.77;4.65;;;;;;;;;;5031253;28;20057;-74
2023/05/04 11:02:03;;;;;;;6.93;3.90;;;;;;;;;;5036324;28;20049;-77
2023/05/04 11:04:30;;;;;;;7.05;3.63;;;;;;;;;;5022653;28;20593;-73
2023/05/04 11:06:58;;;;;;;8.55;4.40;;;;;;;;;;5039999;28;20083;-73
2023/05/04 11:09:25;;;;;;;7.97;3.90;;;;;;;;;;5038956;28;20056;-73
2023/05/04 11:11:53;;;;;;;9.07;3.83;;;;;;;;;;5038175;28;20049;-73
2023/05/04 11:14:26;;;;;;;8.43;4.10;;;;;;;;;;5043366;28;20053;-73
2023/05/04 11:16:53;;;;;;;6.45;3.83;;;;;;;;;;5038030;28;20058;-73
2023/05/04 11:19:20;;;;;;;9.90;4.13;;;;;;;;;;5038350;28;20057;-73
2023/05/04 11:21:46;;;;;;;9.50;4.07;;;;;;;;;;5040041;28;20531;-72
2023/05/04 11:24:13;;;;;;;9.02;4.35;;;;;;;;;;5037503;28;20060;-74
2023/05/04 11:26:47;;;;;;;8.30;3.85;;;;;;;;;;5032056;28;20054;-73
2023/05/04 11:29:14;;;;;;;12.18;3.95;;;;;;;;;;5039535;28;20053;-73
2023/05/04 11:31:40;;;;;;;7.53;4.25;;;;;;;;;;5041482;28;20070;-73
2023/05/04 11:34:07;;;;;;;9.52;4.70;;;;;;;;;;5047142;28;20420;-73
2023/05/04 11:36:36;;;;;;;12.20;4.97;;;;;;;;;;5035193;28;20060;-73
2023/05/04 11:39:05;;;;;;;11.63;4.97;;;;;;;;;;5022137;28;20049;-73
2023/05/04 11:41:31;;;;;;;8.45;4.78;;;;;;;;;;5041127;28;20257;-74
2023/05/04 11:43:59;;;;;;;7.75;4.50;;;;;;;;;;5039248;28;20092;-74
2023/05/04 11:46:25;;;;;;;10.32;4.82;;;;;;;;;;5039968;28;20053;-74
2023/05/04 11:48:52;;;;;;;8.68;4.75;;;;;;;;;;5318383;22;20456;-73
2023/05/04 11:51:21;;;;;;;9.30;5.90;;;;;;;;;;5014577;28;20490;-73
2023/05/04 11:53:47;;;;;;;10.93;6.40;;;;;;;;;;5011047;28;20054;-73
2023/05/04 11:56:13;;;;;;;8.65;5.20;;;;;;;;;;5020937;28;20050;-73
2023/05/04 11:58:40;;;;;;;9.05;5.32;;;;;;;;;;5020327;28;20141;-74
2023/05/04 12:01:06;;;;;;;10.68;6.43;;;;;;;;;;5025250;28;20057;-73
2023/05/04 12:03:33;;;;;;;9.73;6.15;;;;;;;;;;5016929;28;20145;-73
2023/05/04 12:06:03;;;;;;;8.63;5.32;;;;;;;;;;5022039;28;20520;-73
2023/05/04 12:08:30;;;;;;;10.57;6.35;;;;;;;;;;5026186;28;20427;-73
2023/05/04 12:11:19;;;;;;;10.65;6.45;;;;;;;;;;5025671;28;20488;-73
2023/05/04 12:13:46;;;;;;;12.20;6.05;;;;;;;;;;5020406;28;20543;-73
2023/05/04 12:16:12;;;;;;;12.18;6.55;;;;;;;;;;5023004;28;20053;-73
2023/05/04 12:18:39;;;;;;;9.18;6.15;;;;;;;;;;5018912;28;20053;-73
2023/05/04 12:21:12;;;;;;;8.88;6.43;;;;;;;;;;5025763;28;20913;-73
2023/05/04 12:23:39;;;;;;;11.25;6.05;;;;;;;;;;5020397;28;20054;-73
2023/05/04 12:26:06;;;;;;;9.30;5.90;;;;;;;;;;5020119;28;20583;-73
2023/05/04 12:28:36;;;;;;;9.63;5.72;;;;;;;;;;5024628;28;20053;-73
2023/05/04 12:31:06;;;;;;;11.48;5.18;;;;;;;;;;5023963;28;20163;-73
2023/05/04 12:33:32;;;;;;;;;;;;;;;;;;5024727;28;20056;-74
2023/05/04 12:36:00;;;;;;;10.55;5.85;;;;;;;;;;5021904;28;48330;-74
2023/05/04 12:38:26;;;;;;;10.50;5.70;;;;;;;;;;5027490;28;20054;-74
2023/05/04 12:40:53;;;;;;;12.25;5.95;;;;;;;;;;5022132;28;20587;-74
2023/05/04 12:43:21;;;;;;;10.25;5.60;;;;;;;;;;5022414;28;20057;-73
2023/05/04 12:45:49;;;;;;;10.52;6.13;;;;;;;;;;5020003;28;20133;-73
2023/05/04 12:48:15;;;;;;;11.38;6.45;;;;;;;;;;5024675;28;20109;-73
2023/05/04 12:50:45;;;;;;;13.65;6.75;;;;;;;;;;5018499;28;20397;-74
2023/05/04 12:53:11;;;;;;;16.00;7.13;;;;;;;;;;5024021;28;20549;-75
2023/05/04 12:55:38;;;;;;;13.20;6.35;;;;;;;;;;5024247;28;20136;-75
2023/05/04 12:58:05;;;;;;;10.30;6.45;;;;;;;;;;5028196;28;20195;-73
2023/05/04 13:00:35;;;;;;;11.45;6.53;;;;;;;;;;5020465;28;20519;-73
2023/05/04 13:03:02;;;;;;;10.52;6.47;;;;;;;;;;5025192;28;20050;-73
2023/05/04 13:05:28;;;;;;;11.93;6.57;;;;;;;;;;5026009;28;20054;-73
2023/05/04 13:07:55;;;;;;;10.43;6.63;;;;;;;;;;5020458;28;20618;-73
2023/05/04 13:10:21;;;;;;;12.00;6.25;;;;;;;;;;5016372;28;20179;-73
2023/05/04 13:12:48;;;;;;;9.38;6.30;;;;;;;;;;5017266;28;20061;-73
2023/05/04 13:15:14;;;;;;;11.15;7.15;;;;;;;;;;5015409;28;20157;-72
2023/05/04 13:17:44;;;;;;;12.55;7.55;;;;;;;;;;5021760;28;20053;-73
2023/05/04 13:20:11;;;;;;;10.82;7.43;;;;;;;;;;5023680;28;20149;-73
2023/05/04 13:22:38;;;;;;;15.20;7.78;;;;;;;;;;5005868;28;20053;-73
2023/05/04 13:25:05;;;;;;;13.52;7.68;;;;;;;;;;5018918;28;20054;-73
2023/05/04 13:27:32;;;;;;;11.82;7.53;;;;;;;;;;5021287;28;20054;-73
2023/05/04 13:30:00;;;;;;;15.18;7.88;;;;;;;;;;5025106;28;20049;-73
2023/05/04 13:32:27;;;;;;;12.50;7.70;;;;;;;;;;5024181;28;20732;-73
2023/05/04 13:34:54;;;;;;;10.93;7.72;;;;;;;;;;5020610;28;20425;-73
2023/05/04 13:37:20;;;;;;;12.23;7.97;;;;;;;;;;5020974;28;20065;-73
2023/05/04 13:39:46;;;;;;;15.63;7.82;;;;;;;;;;5020729;28;20053;-73
2023/05/04 13:42:13;;;;;;;14.90;8.55;;;;;;;;;;5020980;28;20049;-73
2023/05/04 13:44:43;;;;;;;12.35;7.78;;;;;;;;;;5025819;28;20081;-73
2023/05/04 13:47:11;;;;;;;15.43;8.30;;;;;;;;;;5023370;28;20046;-73
2023/05/04 13:49:38;;;;;;;12.00;8.23;;;;;;;;;;5034563;28;20064;-73
2023/05/04 13:52:04;;;;;;;11.75;7.13;;;;;;;;;;5015229;28;20058;-73
2023/05/04 13:54:30;;;;;;;13.48;7.47;;;;;;;;;;5020936;28;20050;-73
2023/05/04 13:56:57;;;;;;;10.38;7.00;;;;;;;;;;5024777;28;20121;-73
2023/05/04 13:59:23;;;;;;;13.68;7.68;;;;;;;;;;5024717;28;20054;-73
2023/05/04 14:01:51;;;;;;;11.73;7.63;;;;;;;;;;5023936;28;20136;-73
2023/05/04 14:04:17;;;;;;;12.30;7.82;;;;;;;;;;5013870;28;20950;-73
2023/05/04 14:06:50;;;;;;;12.45;7.22;;;;;;;;;;5021547;28;20057;-73
2023/05/04 14:09:17;;;;;;;12.90;6.93;;;;;;;;;;5021731;28;20057;-73
2023/05/04 14:11:44;;;;;;;13.07;8.15;;;;;;;;;;5017111;28;20152;-73
2023/05/04 14:14:10;;;;;;;13.43;7.85;;;;;;;;;;5020551;28;20046;-73
2023/05/04 14:16:37;;;;;;;12.65;7.13;;;;;;;;;;5019107;28;20889;-73
2023/05/04 14:19:03;;;;;;;12.80;6.97;;;;;;;;;;5023057;28;20053;-73
2023/05/04 14:21:29;;;;;;;15.35;7.53;;;;;;;;;;5022884;28;20054;-73
2023/05/04 14:23:56;;;;;;;10.75;7.43;;;;;;;;;;5025007;28;20508;-73
2023/05/04 14:26:22;;;;;;;15.02;8.38;;;;;;;;;;5022370;28;20141;-73
2023/05/04 14:28:48;;;;;;;13.27;7.40;;;;;;;;;;5019527;28;20682;-73
2023/05/04 14:31:15;;;;;;;11.30;6.60;;;;;;;;;;5024200;28;20058;-73
2023/05/04 14:33:41;;;;;;;11.50;6.82;;;;;;;;;;5022305;28;20057;-73
2023/05/04 14:36:10;;;;;;;11.45;7.05;;;;;;;;;;5022631;28;20058;-73
2023/05/04 14:38:37;;;;;;;13.10;7.10;;;;;;;;;;5020619;28;20573;-73